Anselmo, Nebraska
Current Conditions -  °F | °C
As of 10:53 AM on Friday 31 Oct 2014 (Local Time) from KBBW Reporting Station
Clear Clear  
Wind Chill: -3°   Ceiling: Unl
Heat Index:   Visibility: 10mi
Dew Point: -6°   Wind: 5mph
Humidity: 66%   Direction: 160°SSE
Pressure: 30.54"   Gusts: NA
Location:  41.62°N, 99.87°W
Report Text: KBBW 311553Z AUTO 16004KT 10SM CLR 00/M06 A3054 RMK AO2 SLP364 T00001056
Loading
Personal Weather Stations






























Interactive Weather Map New forecast layout! Learn more

10-Day Weather Forecast

Advertisements
Track Severe Weather on mobile